sensor_id;sensor_type;location;lat;lon;timestamp;P1;durP1;ratioP1;P2;durP2;ratioP2
40993;SDS011;26722;43.212;27.932;2023-04-25T00:01:33;18.25;;;7.20;;
40993;SDS011;26722;43.212;27.932;2023-04-25T00:04:02;23.67;;;7.25;;
40993;SDS011;26722;43.212;27.932;2023-04-25T00:06:28;24.38;;;7.53;;
40993;SDS011;26722;43.212;27.932;2023-04-25T00:08:55;20.65;;;7.07;;
40993;SDS011;26722;43.212;27.932;2023-04-25T00:11:21;29.00;;;6.93;;
40993;SDS011;26722;43.212;27.932;2023-04-25T00:13:47;28.48;;;7.80;;
40993;SDS011;26722;43.212;27.932;2023-04-25T00:16:14;29.42;;;6.80;;
40993;SDS011;26722;43.212;27.932;2023-04-25T00:18:41;38.17;;;8.90;;
40993;SDS011;26722;43.212;27.932;2023-04-25T00:21:07;34.08;;;7.70;;
40993;SDS011;26722;43.212;27.932;2023-04-25T00:23:33;28.40;;;7.97;;
40993;SDS011;26722;43.212;27.932;2023-04-25T00:26:00;27.92;;;7.75;;
40993;SDS011;26722;43.212;27.932;2023-04-25T00:28:26;24.80;;;7.72;;
40993;SDS011;26722;43.212;27.932;2023-04-25T00:30:51;26.17;;;8.32;;
40993;SDS011;26722;43.212;27.932;2023-04-25T00:33:17;27.27;;;7.57;;
40993;SDS011;26722;43.212;27.932;2023-04-25T00:35:42;20.58;;;7.47;;
40993;SDS011;26722;43.212;27.932;2023-04-25T00:38:07;22.70;;;8.02;;
40993;SDS011;26722;43.212;27.932;2023-04-25T00:40:33;20.15;;;7.70;;
40993;SDS011;26722;43.212;27.932;2023-04-25T00:42:58;28.05;;;8.38;;
40993;SDS011;26722;43.212;27.932;2023-04-25T00:45:27;23.73;;;7.82;;
40993;SDS011;26722;43.212;27.932;2023-04-25T00:47:54;32.50;;;8.43;;
40993;SDS011;26722;43.212;27.932;2023-04-25T00:50:20;26.95;;;7.18;;
40993;SDS011;26722;43.212;27.932;2023-04-25T00:52:46;24.90;;;7.65;;
40993;SDS011;26722;43.212;27.932;2023-04-25T00:55:11;27.25;;;7.47;;
40993;SDS011;26722;43.212;27.932;2023-04-25T00:57:37;23.60;;;7.18;;
40993;SDS011;26722;43.212;27.932;2023-04-25T01:00:04;28.27;;;7.40;;
40993;SDS011;26722;43.212;27.932;2023-04-25T01:02:32;28.00;;;7.72;;
40993;SDS011;26722;43.212;27.932;2023-04-25T01:05:00;27.08;;;7.25;;
40993;SDS011;26722;43.212;27.932;2023-04-25T01:07:25;18.85;;;7.20;;
40993;SDS011;26722;43.212;27.932;2023-04-25T01:09:51;25.60;;;8.10;;
40993;SDS011;26722;43.212;27.932;2023-04-25T01:12:17;25.70;;;8.02;;
40993;SDS011;26722;43.212;27.932;2023-04-25T01:14:42;25.10;;;7.32;;
40993;SDS011;26722;43.212;27.932;2023-04-25T01:17:08;30.48;;;7.68;;
40993;SDS011;26722;43.212;27.932;2023-04-25T01:19:35;32.50;;;7.20;;
40993;SDS011;26722;43.212;27.932;2023-04-25T01:22:00;27.58;;;7.50;;
40993;SDS011;26722;43.212;27.932;2023-04-25T01:24:26;33.25;;;7.75;;
40993;SDS011;26722;43.212;27.932;2023-04-25T01:26:51;20.02;;;7.10;;
40993;SDS011;26722;43.212;27.932;2023-04-25T01:29:19;27.38;;;7.28;;
40993;SDS011;26722;43.212;27.932;2023-04-25T01:31:45;33.10;;;7.80;;
40993;SDS011;26722;43.212;27.932;2023-04-25T01:34:14;23.25;;;8.20;;
40993;SDS011;26722;43.212;27.932;2023-04-25T01:36:40;29.80;;;7.05;;
40993;SDS011;26722;43.212;27.932;2023-04-25T01:39:06;24.92;;;7.70;;
40993;SDS011;26722;43.212;27.932;2023-04-25T01:41:31;29.02;;;7.40;;
40993;SDS011;26722;43.212;27.932;2023-04-25T01:43:59;27.15;;;8.10;;
40993;SDS011;26722;43.212;27.932;2023-04-25T01:46:25;19.70;;;7.80;;
40993;SDS011;26722;43.212;27.932;2023-04-25T01:48:51;30.10;;;8.60;;
40993;SDS011;26722;43.212;27.932;2023-04-25T01:51:16;25.40;;;7.75;;
40993;SDS011;26722;43.212;27.932;2023-04-25T01:53:42;21.15;;;7.57;;
40993;SDS011;26722;43.212;27.932;2023-04-25T01:56:08;25.88;;;7.25;;
40993;SDS011;26722;43.212;27.932;2023-04-25T01:58:33;26.00;;;8.30;;
40993;SDS011;26722;43.212;27.932;2023-04-25T02:00:59;25.75;;;8.30;;
40993;SDS011;26722;43.212;27.932;2023-04-25T02:03:25;27.85;;;7.68;;
40993;SDS011;26722;43.212;27.932;2023-04-25T02:05:50;23.30;;;7.70;;
40993;SDS011;26722;43.212;27.932;2023-04-25T02:08:16;24.23;;;7.78;;
40993;SDS011;26722;43.212;27.932;2023-04-25T02:10:42;26.08;;;7.63;;
40993;SDS011;26722;43.212;27.932;2023-04-25T02:13:07;26.10;;;8.23;;
40993;SDS011;26722;43.212;27.932;2023-04-25T02:15:33;35.20;;;8.05;;
40993;SDS011;26722;43.212;27.932;2023-04-25T02:17:58;30.33;;;8.55;;
40993;SDS011;26722;43.212;27.932;2023-04-25T02:20:25;27.25;;;8.20;;
40993;SDS011;26722;43.212;27.932;2023-04-25T02:22:51;22.38;;;7.47;;
40993;SDS011;26722;43.212;27.932;2023-04-25T02:25:17;27.98;;;8.52;;
40993;SDS011;26722;43.212;27.932;2023-04-25T02:27:45;24.35;;;9.00;;
40993;SDS011;26722;43.212;27.932;2023-04-25T02:30:11;14.43;;;6.68;;
40993;SDS011;26722;43.212;27.932;2023-04-25T02:32:37;26.77;;;8.02;;
40993;SDS011;26722;43.212;27.932;2023-04-25T02:35:03;32.20;;;8.68;;
40993;SDS011;26722;43.212;27.932;2023-04-25T02:37:33;22.67;;;8.25;;
40993;SDS011;26722;43.212;27.932;2023-04-25T02:40:00;24.27;;;8.25;;
40993;SDS011;26722;43.212;27.932;2023-04-25T02:42:26;33.67;;;9.65;;
40993;SDS011;26722;43.212;27.932;2023-04-25T02:44:52;28.40;;;8.35;;
40993;SDS011;26722;43.212;27.932;2023-04-25T02:47:17;31.17;;;8.95;;
40993;SDS011;26722;43.212;27.932;2023-04-25T02:49:43;34.83;;;9.07;;
40993;SDS011;26722;43.212;27.932;2023-04-25T02:52:08;34.95;;;9.85;;
40993;SDS011;26722;43.212;27.932;2023-04-25T02:54:34;35.60;;;9.93;;
40993;SDS011;26722;43.212;27.932;2023-04-25T02:56:59;29.65;;;9.93;;
40993;SDS011;26722;43.212;27.932;2023-04-25T02:59:25;39.22;;;9.73;;
40993;SDS011;26722;43.212;27.932;2023-04-25T03:01:51;44.63;;;9.82;;
40993;SDS011;26722;43.212;27.932;2023-04-25T03:04:16;32.60;;;9.45;;
40993;SDS011;26722;43.212;27.932;2023-04-25T03:06:44;30.23;;;9.70;;
40993;SDS011;26722;43.212;27.932;2023-04-25T03:09:09;28.40;;;8.70;;
40993;SDS011;26722;43.212;27.932;2023-04-25T03:11:35;33.95;;;9.82;;
40993;SDS011;26722;43.212;27.932;2023-04-25T03:14:01;30.92;;;9.45;;
40993;SDS011;26722;43.212;27.932;2023-04-25T03:16:27;31.10;;;8.75;;
40993;SDS011;26722;43.212;27.932;2023-04-25T03:18:52;35.40;;;9.45;;
40993;SDS011;26722;43.212;27.932;2023-04-25T03:21:18;25.73;;;9.73;;
40993;SDS011;26722;43.212;27.932;2023-04-25T03:23:43;34.03;;;10.57;;
40993;SDS011;26722;43.212;27.932;2023-04-25T03:26:09;33.22;;;10.25;;
40993;SDS011;26722;43.212;27.932;2023-04-25T03:28:35;34.22;;;9.80;;
40993;SDS011;26722;43.212;27.932;2023-04-25T03:31:00;28.42;;;10.35;;
40993;SDS011;26722;43.212;27.932;2023-04-25T03:33:26;33.08;;;10.40;;
40993;SDS011;26722;43.212;27.932;2023-04-25T03:35:51;33.83;;;11.25;;
40993;SDS011;26722;43.212;27.932;2023-04-25T03:38:17;42.30;;;10.57;;
40993;SDS011;26722;43.212;27.932;2023-04-25T03:40:42;31.50;;;10.40;;
40993;SDS011;26722;43.212;27.932;2023-04-25T03:43:08;37.60;;;9.88;;
40993;SDS011;26722;43.212;27.932;2023-04-25T03:45:33;32.08;;;10.32;;
40993;SDS011;26722;43.212;27.932;2023-04-25T03:47:59;29.15;;;9.52;;
40993;SDS011;26722;43.212;27.932;2023-04-25T03:50:24;28.20;;;10.10;;
40993;SDS011;26722;43.212;27.932;2023-04-25T03:52:50;27.00;;;10.57;;
40993;SDS011;26722;43.212;27.932;2023-04-25T03:55:15;34.08;;;10.90;;
40993;SDS011;26722;43.212;27.932;2023-04-25T03:57:41;34.63;;;11.32;;
40993;SDS011;26722;43.212;27.932;2023-04-25T04:00:06;36.85;;;11.60;;
40993;SDS011;26722;43.212;27.932;2023-04-25T04:02:32;34.83;;;11.35;;
40993;SDS011;26722;43.212;27.932;2023-04-25T04:04:59;35.05;;;11.95;;
40993;SDS011;26722;43.212;27.932;2023-04-25T04:07:25;32.53;;;11.60;;
40993;SDS011;26722;43.212;27.932;2023-04-25T04:09:50;28.90;;;10.98;;
40993;SDS011;26722;43.212;27.932;2023-04-25T04:12:16;32.30;;;12.32;;
40993;SDS011;26722;43.212;27.932;2023-04-25T04:14:41;31.48;;;11.38;;
40993;SDS011;26722;43.212;27.932;2023-04-25T04:17:07;25.20;;;9.30;;
40993;SDS011;26722;43.212;27.932;2023-04-25T04:19:32;26.60;;;9.25;;
40993;SDS011;26722;43.212;27.932;2023-04-25T04:21:57;27.50;;;8.73;;
40993;SDS011;26722;43.212;27.932;2023-04-25T04:24:23;31.80;;;9.73;;
40993;SDS011;26722;43.212;27.932;2023-04-25T04:26:49;22.88;;;7.90;;
40993;SDS011;26722;43.212;27.932;2023-04-25T04:29:15;21.42;;;7.80;;
40993;SDS011;26722;43.212;27.932;2023-04-25T04:31:47;26.48;;;8.35;;
40993;SDS011;26722;43.212;27.932;2023-04-25T04:34:14;25.35;;;8.30;;
40993;SDS011;26722;43.212;27.932;2023-04-25T04:36:41;24.02;;;8.13;;
40993;SDS011;26722;43.212;27.932;2023-04-25T04:39:07;26.58;;;8.77;;
40993;SDS011;26722;43.212;27.932;2023-04-25T04:41:34;32.53;;;9.50;;
40993;SDS011;26722;43.212;27.932;2023-04-25T04:43:59;28.20;;;8.63;;
40993;SDS011;26722;43.212;27.932;2023-04-25T04:46:26;29.33;;;9.10;;
40993;SDS011;26722;43.212;27.932;2023-04-25T04:48:53;25.25;;;9.02;;
40993;SDS011;26722;43.212;27.932;2023-04-25T04:51:18;26.95;;;9.35;;
40993;SDS011;26722;43.212;27.932;2023-04-25T04:53:44;24.77;;;8.68;;
40993;SDS011;26722;43.212;27.932;2023-04-25T04:56:09;23.98;;;8.38;;
40993;SDS011;26722;43.212;27.932;2023-04-25T04:58:35;24.70;;;8.70;;
40993;SDS011;26722;43.212;27.932;2023-04-25T05:01:01;27.23;;;8.50;;
40993;SDS011;26722;43.212;27.932;2023-04-25T05:03:27;24.40;;;8.15;;
40993;SDS011;26722;43.212;27.932;2023-04-25T05:05:53;23.10;;;9.38;;
40993;SDS011;26722;43.212;27.932;2023-04-25T05:08:18;26.88;;;9.70;;
40993;SDS011;26722;43.212;27.932;2023-04-25T05:10:44;31.17;;;8.55;;
40993;SDS011;26722;43.212;27.932;2023-04-25T05:13:09;23.80;;;8.50;;
40993;SDS011;26722;43.212;27.932;2023-04-25T05:15:35;23.90;;;9.00;;
40993;SDS011;26722;43.212;27.932;2023-04-25T05:18:00;23.50;;;8.93;;
40993;SDS011;26722;43.212;27.932;2023-04-25T05:20:26;21.92;;;9.05;;
40993;SDS011;26722;43.212;27.932;2023-04-25T05:22:52;24.45;;;9.05;;
40993;SDS011;26722;43.212;27.932;2023-04-25T05:25:17;31.73;;;8.45;;
40993;SDS011;26722;43.212;27.932;2023-04-25T05:27:42;26.42;;;8.55;;
40993;SDS011;26722;43.212;27.932;2023-04-25T05:30:08;24.58;;;7.78;;
40993;SDS011;26722;43.212;27.932;2023-04-25T05:32:34;22.98;;;8.25;;
40993;SDS011;26722;43.212;27.932;2023-04-25T05:35:00;25.10;;;9.18;;
40993;SDS011;26722;43.212;27.932;2023-04-25T05:37:26;20.05;;;8.18;;
40993;SDS011;26722;43.212;27.932;2023-04-25T05:39:51;24.00;;;7.97;;
40993;SDS011;26722;43.212;27.932;2023-04-25T05:42:17;23.13;;;8.20;;
40993;SDS011;26722;43.212;27.932;2023-04-25T05:44:42;28.45;;;8.23;;
40993;SDS011;26722;43.212;27.932;2023-04-25T05:47:07;21.38;;;8.52;;
40993;SDS011;26722;43.212;27.932;2023-04-25T05:49:34;28.30;;;8.95;;
40993;SDS011;26722;43.212;27.932;2023-04-25T05:51:59;30.42;;;8.45;;
40993;SDS011;26722;43.212;27.932;2023-04-25T05:54:25;21.13;;;8.43;;
40993;SDS011;26722;43.212;27.932;2023-04-25T05:56:50;20.52;;;8.00;;
40993;SDS011;26722;43.212;27.932;2023-04-25T05:59:16;22.42;;;7.43;;
40993;SDS011;26722;43.212;27.932;2023-04-25T06:01:41;19.50;;;7.93;;
40993;SDS011;26722;43.212;27.932;2023-04-25T06:04:07;25.50;;;8.73;;
40993;SDS011;26722;43.212;27.932;2023-04-25T06:06:32;23.45;;;7.70;;
40993;SDS011;26722;43.212;27.932;2023-04-25T06:08:58;24.05;;;9.45;;
40993;SDS011;26722;43.212;27.932;2023-04-25T06:11:23;25.83;;;9.02;;
40993;SDS011;26722;43.212;27.932;2023-04-25T06:13:48;21.40;;;8.07;;
40993;SDS011;26722;43.212;27.932;2023-04-25T06:16:14;21.70;;;7.60;;
40993;SDS011;26722;43.212;27.932;2023-04-25T06:18:41;20.95;;;8.65;;
40993;SDS011;26722;43.212;27.932;2023-04-25T06:21:06;23.80;;;8.50;;
40993;SDS011;26722;43.212;27.932;2023-04-25T06:23:32;36.97;;;9.93;;
40993;SDS011;26722;43.212;27.932;2023-04-25T06:25:57;27.02;;;9.10;;
40993;SDS011;26722;43.212;27.932;2023-04-25T06:28:23;25.42;;;8.43;;
40993;SDS011;26722;43.212;27.932;2023-04-25T06:30:49;27.85;;;8.40;;
40993;SDS011;26722;43.212;27.932;2023-04-25T06:33:15;21.52;;;8.68;;
40993;SDS011;26722;43.212;27.932;2023-04-25T06:35:40;22.15;;;7.88;;
40993;SDS011;26722;43.212;27.932;2023-04-25T06:38:06;22.38;;;7.95;;
40993;SDS011;26722;43.212;27.932;2023-04-25T06:40:31;23.23;;;7.72;;
40993;SDS011;26722;43.212;27.932;2023-04-25T06:42:57;24.00;;;7.38;;
40993;SDS011;26722;43.212;27.932;2023-04-25T06:45:22;18.52;;;7.10;;
40993;SDS011;26722;43.212;27.932;2023-04-25T06:47:47;24.73;;;9.40;;
40993;SDS011;26722;43.212;27.932;2023-04-25T06:50:13;24.10;;;8.68;;
40993;SDS011;26722;43.212;27.932;2023-04-25T06:52:38;20.52;;;7.90;;
40993;SDS011;26722;43.212;27.932;2023-04-25T06:55:04;20.08;;;7.63;;
40993;SDS011;26722;43.212;27.932;2023-04-25T06:57:30;18.27;;;7.72;;
40993;SDS011;26722;43.212;27.932;2023-04-25T06:59:56;19.70;;;7.95;;
40993;SDS011;26722;43.212;27.932;2023-04-25T07:02:21;26.67;;;7.88;;
40993;SDS011;26722;43.212;27.932;2023-04-25T07:04:47;19.05;;;8.43;;
40993;SDS011;26722;43.212;27.932;2023-04-25T07:07:12;23.73;;;7.65;;
40993;SDS011;26722;43.212;27.932;2023-04-25T07:09:38;27.08;;;8.80;;
40993;SDS011;26722;43.212;27.932;2023-04-25T07:12:04;19.70;;;8.02;;
40993;SDS011;26722;43.212;27.932;2023-04-25T07:14:29;19.17;;;8.18;;
40993;SDS011;26722;43.212;27.932;2023-04-25T07:16:55;19.08;;;8.40;;
40993;SDS011;26722;43.212;27.932;2023-04-25T07:19:22;19.70;;;9.18;;
40993;SDS011;26722;43.212;27.932;2023-04-25T07:21:51;20.98;;;8.70;;
40993;SDS011;26722;43.212;27.932;2023-04-25T07:24:17;26.63;;;9.18;;
40993;SDS011;26722;43.212;27.932;2023-04-25T07:26:42;24.08;;;9.20;;
40993;SDS011;26722;43.212;27.932;2023-04-25T07:29:08;23.83;;;8.68;;
40993;SDS011;26722;43.212;27.932;2023-04-25T07:31:33;15.50;;;7.70;;
40993;SDS011;26722;43.212;27.932;2023-04-25T07:33:58;22.65;;;8.63;;
40993;SDS011;26722;43.212;27.932;2023-04-25T07:36:24;20.52;;;8.35;;
40993;SDS011;26722;43.212;27.932;2023-04-25T07:38:51;23.95;;;8.15;;
40993;SDS011;26722;43.212;27.932;2023-04-25T07:41:16;17.60;;;8.38;;
40993;SDS011;26722;43.212;27.932;2023-04-25T07:43:42;25.60;;;9.23;;
40993;SDS011;26722;43.212;27.932;2023-04-25T07:46:07;16.42;;;8.68;;
40993;SDS011;26722;43.212;27.932;2023-04-25T07:48:33;21.90;;;9.15;;
40993;SDS011;26722;43.212;27.932;2023-04-25T07:50:58;21.48;;;8.85;;
40993;SDS011;26722;43.212;27.932;2023-04-25T07:53:24;25.38;;;9.77;;
40993;SDS011;26722;43.212;27.932;2023-04-25T07:55:49;19.65;;;9.98;;
40993;SDS011;26722;43.212;27.932;2023-04-25T07:58:15;20.27;;;9.73;;
40993;SDS011;26722;43.212;27.932;2023-04-25T08:00:46;22.27;;;9.40;;
40993;SDS011;26722;43.212;27.932;2023-04-25T08:03:11;23.13;;;10.35;;
40993;SDS011;26722;43.212;27.932;2023-04-25T08:05:37;19.63;;;9.63;;
40993;SDS011;26722;43.212;27.932;2023-04-25T08:08:02;20.00;;;9.45;;
40993;SDS011;26722;43.212;27.932;2023-04-25T08:10:29;22.92;;;9.60;;
40993;SDS011;26722;43.212;27.932;2023-04-25T08:12:55;23.90;;;9.57;;
40993;SDS011;26722;43.212;27.932;2023-04-25T08:15:20;20.13;;;9.73;;
40993;SDS011;26722;43.212;27.932;2023-04-25T08:17:46;22.90;;;10.13;;
40993;SDS011;26722;43.212;27.932;2023-04-25T08:20:11;21.08;;;9.32;;
40993;SDS011;26722;43.212;27.932;2023-04-25T08:22:37;23.25;;;9.93;;
40993;SDS011;26722;43.212;27.932;2023-04-25T08:25:02;25.08;;;10.32;;
40993;SDS011;26722;43.212;27.932;2023-04-25T08:27:28;24.40;;;9.50;;
40993;SDS011;26722;43.212;27.932;2023-04-25T08:29:54;23.73;;;9.20;;
40993;SDS011;26722;43.212;27.932;2023-04-25T08:32:19;21.92;;;10.13;;
40993;SDS011;26722;43.212;27.932;2023-04-25T08:34:46;27.63;;;9.73;;
40993;SDS011;26722;43.212;27.932;2023-04-25T08:37:11;23.80;;;10.80;;
40993;SDS011;26722;43.212;27.932;2023-04-25T08:39:37;19.63;;;10.38;;
40993;SDS011;26722;43.212;27.932;2023-04-25T08:42:04;23.52;;;9.15;;
40993;SDS011;26722;43.212;27.932;2023-04-25T08:44:35;26.73;;;8.88;;
40993;SDS011;26722;43.212;27.932;2023-04-25T08:47:04;25.45;;;10.32;;
40993;SDS011;26722;43.212;27.932;2023-04-25T08:49:33;17.05;;;8.65;;
40993;SDS011;26722;43.212;27.932;2023-04-25T08:51:59;15.90;;;8.57;;
40993;SDS011;26722;43.212;27.932;2023-04-25T08:54:26;20.35;;;9.18;;
40993;SDS011;26722;43.212;27.932;2023-04-25T08:56:53;18.80;;;9.20;;
40993;SDS011;26722;43.212;27.932;2023-04-25T08:59:21;19.48;;;8.38;;
40993;SDS011;26722;43.212;27.932;2023-04-25T09:01:48;20.20;;;8.88;;
40993;SDS011;26722;43.212;27.932;2023-04-25T09:04:14;17.27;;;7.70;;
40993;SDS011;26722;43.212;27.932;2023-04-25T09:06:40;19.73;;;8.77;;
40993;SDS011;26722;43.212;27.932;2023-04-25T09:09:06;15.88;;;7.03;;
40993;SDS011;26722;43.212;27.932;2023-04-25T09:11:34;12.13;;;7.07;;
40993;SDS011;26722;43.212;27.932;2023-04-25T09:14:16;13.70;;;6.78;;
40993;SDS011;26722;43.212;27.932;2023-04-25T09:19:24;22.17;;;8.05;;
40993;SDS011;26722;43.212;27.932;2023-04-25T09:21:59;16.30;;;7.05;;
40993;SDS011;26722;43.212;27.932;2023-04-25T09:26:56;17.95;;;7.78;;
40993;SDS011;26722;43.212;27.932;2023-04-25T09:29:28;12.65;;;7.07;;
40993;SDS011;26722;43.212;27.932;2023-04-25T09:34:40;12.43;;;6.18;;
40993;SDS011;26722;43.212;27.932;2023-04-25T09:37:09;12.68;;;6.75;;
40993;SDS011;26722;43.212;27.932;2023-04-25T09:39:36;15.75;;;6.78;;
40993;SDS011;26722;43.212;27.932;2023-04-25T09:42:03;13.80;;;6.00;;
40993;SDS011;26722;43.212;27.932;2023-04-25T09:44:29;14.10;;;5.80;;
40993;SDS011;26722;43.212;27.932;2023-04-25T09:46:55;15.05;;;6.10;;
40993;SDS011;26722;43.212;27.932;2023-04-25T09:49:20;17.17;;;6.13;;
40993;SDS011;26722;43.212;27.932;2023-04-25T09:51:58;11.25;;;5.35;;
40993;SDS011;26722;43.212;27.932;2023-04-25T09:54:25;11.65;;;6.18;;
40993;SDS011;26722;43.212;27.932;2023-04-25T09:56:51;12.15;;;6.30;;
40993;SDS011;26722;43.212;27.932;2023-04-25T09:59:19;13.43;;;5.75;;
40993;SDS011;26722;43.212;27.932;2023-04-25T10:01:47;14.75;;;6.63;;
40993;SDS011;26722;43.212;27.932;2023-04-25T10:04:16;14.88;;;5.82;;
40993;SDS011;26722;43.212;27.932;2023-04-25T10:06:48;9.10;;;5.53;;
40993;SDS011;26722;43.212;27.932;2023-04-25T10:09:16;12.35;;;6.05;;
40993;SDS011;26722;43.212;27.932;2023-04-25T10:11:48;18.30;;;5.95;;
40993;SDS011;26722;43.212;27.932;2023-04-25T10:14:15;15.20;;;5.80;;
40993;SDS011;26722;43.212;27.932;2023-04-25T10:16:42;16.92;;;5.60;;
40993;SDS011;26722;43.212;27.932;2023-04-25T10:19:08;11.98;;;5.28;;
40993;SDS011;26722;43.212;27.932;2023-04-25T10:21:34;16.60;;;5.78;;
40993;SDS011;26722;43.212;27.932;2023-04-25T10:24:10;13.55;;;5.60;;
40993;SDS011;26722;43.212;27.932;2023-04-25T10:26:36;11.63;;;5.10;;
40993;SDS011;26722;43.212;27.932;2023-04-25T10:29:02;10.05;;;5.38;;
40993;SDS011;26722;43.212;27.932;2023-04-25T10:31:31;9.98;;;5.20;;
40993;SDS011;26722;43.212;27.932;2023-04-25T10:33:59;9.00;;;5.88;;
40993;SDS011;26722;43.212;27.932;2023-04-25T10:36:24;9.82;;;5.25;;
40993;SDS011;26722;43.212;27.932;2023-04-25T10:38:54;13.35;;;5.45;;
40993;SDS011;26722;43.212;27.932;2023-04-25T10:41:20;11.55;;;5.60;;
40993;SDS011;26722;43.212;27.932;2023-04-25T10:43:48;14.20;;;5.55;;
40993;SDS011;26722;43.212;27.932;2023-04-25T10:46:27;9.77;;;5.65;;
40993;SDS011;26722;43.212;27.932;2023-04-25T10:48:57;13.70;;;5.95;;
40993;SDS011;26722;43.212;27.932;2023-04-25T10:51:27;18.15;;;6.93;;
40993;SDS011;26722;43.212;27.932;2023-04-25T10:54:00;20.55;;;6.85;;
40993;SDS011;26722;43.212;27.932;2023-04-25T10:56:30;12.75;;;5.93;;
40993;SDS011;26722;43.212;27.932;2023-04-25T10:59:25;12.57;;;5.32;;
40993;SDS011;26722;43.212;27.932;2023-04-25T11:01:53;14.18;;;6.40;;
40993;SDS011;26722;43.212;27.932;2023-04-25T11:04:21;17.52;;;6.85;;
40993;SDS011;26722;43.212;27.932;2023-04-25T11:09:39;12.68;;;6.70;;
40993;SDS011;26722;43.212;27.932;2023-04-25T11:12:07;14.13;;;6.90;;
40993;SDS011;26722;43.212;27.932;2023-04-25T11:14:34;17.55;;;7.00;;
40993;SDS011;26722;43.212;27.932;2023-04-25T11:17:00;15.40;;;6.90;;
40993;SDS011;26722;43.212;27.932;2023-04-25T11:19:27;10.73;;;6.90;;
40993;SDS011;26722;43.212;27.932;2023-04-25T11:21:57;13.70;;;6.22;;
40993;SDS011;26722;43.212;27.932;2023-04-25T11:24:27;15.55;;;6.80;;
40993;SDS011;26722;43.212;27.932;2023-04-25T11:26:54;12.73;;;6.70;;
40993;SDS011;26722;43.212;27.932;2023-04-25T11:29:23;12.13;;;6.78;;
40993;SDS011;26722;43.212;27.932;2023-04-25T11:31:51;14.75;;;7.05;;
40993;SDS011;26722;43.212;27.932;2023-04-25T11:34:18;14.85;;;6.90;;
40993;SDS011;26722;43.212;27.932;2023-04-25T11:36:44;15.02;;;6.65;;
40993;SDS011;26722;43.212;27.932;2023-04-25T11:39:11;15.35;;;6.25;;
40993;SDS011;26722;43.212;27.932;2023-04-25T11:41:37;18.10;;;7.40;;
40993;SDS011;26722;43.212;27.932;2023-04-25T11:44:03;11.00;;;6.63;;
40993;SDS011;26722;43.212;27.932;2023-04-25T11:46:29;11.55;;;6.80;;
40993;SDS011;26722;43.212;27.932;2023-04-25T11:48:55;12.02;;;6.57;;
40993;SDS011;26722;43.212;27.932;2023-04-25T11:51:21;13.02;;;7.38;;
40993;SDS011;26722;43.212;27.932;2023-04-25T11:53:46;17.30;;;6.53;;
40993;SDS011;26722;43.212;27.932;2023-04-25T11:56:12;13.80;;;6.72;;
40993;SDS011;26722;43.212;27.932;2023-04-25T11:58:53;15.88;;;7.20;;
40993;SDS011;26722;43.212;27.932;2023-04-25T12:01:30;14.30;;;6.30;;
40993;SDS011;26722;43.212;27.932;2023-04-25T12:03:57;15.60;;;6.50;;
40993;SDS011;26722;43.212;27.932;2023-04-25T12:06:26;15.13;;;6.10;;
40993;SDS011;26722;43.212;27.932;2023-04-25T12:09:02;8.90;;;5.13;;
40993;SDS011;26722;43.212;27.932;2023-04-25T12:11:29;9.85;;;4.80;;
40993;SDS011;26722;43.212;27.932;2023-04-25T12:14:01;9.77;;;5.32;;
40993;SDS011;26722;43.212;27.932;2023-04-25T12:16:28;9.07;;;5.35;;
40993;SDS011;26722;43.212;27.932;2023-04-25T12:18:55;8.43;;;5.78;;
40993;SDS011;26722;43.212;27.932;2023-04-25T12:21:22;10.73;;;5.60;;
40993;SDS011;26722;43.212;27.932;2023-04-25T12:23:47;9.18;;;5.60;;
40993;SDS011;26722;43.212;27.932;2023-04-25T12:26:12;10.35;;;5.65;;
40993;SDS011;26722;43.212;27.932;2023-04-25T12:28:38;10.20;;;5.40;;
40993;SDS011;26722;43.212;27.932;2023-04-25T12:31:04;13.20;;;5.55;;
40993;SDS011;26722;43.212;27.932;2023-04-25T12:33:35;10.70;;;5.95;;
40993;SDS011;26722;43.212;27.932;2023-04-25T12:36:02;10.82;;;6.40;;
40993;SDS011;26722;43.212;27.932;2023-04-25T12:38:35;16.17;;;6.80;;
40993;SDS011;26722;43.212;27.932;2023-04-25T12:41:02;16.00;;;6.93;;
40993;SDS011;26722;43.212;27.932;2023-04-25T12:43:27;17.20;;;7.03;;
40993;SDS011;26722;43.212;27.932;2023-04-25T12:45:53;12.50;;;6.95;;
40993;SDS011;26722;43.212;27.932;2023-04-25T12:48:20;17.42;;;7.22;;
40993;SDS011;26722;43.212;27.932;2023-04-25T12:50:46;11.15;;;6.97;;
40993;SDS011;26722;43.212;27.932;2023-04-25T12:53:14;13.25;;;7.40;;
40993;SDS011;26722;43.212;27.932;2023-04-25T12:55:44;14.75;;;7.90;;
40993;SDS011;26722;43.212;27.932;2023-04-25T12:58:13;16.60;;;7.90;;
40993;SDS011;26722;43.212;27.932;2023-04-25T13:00:42;12.52;;;7.25;;
40993;SDS011;26722;43.212;27.932;2023-04-25T13:03:08;13.55;;;7.88;;
40993;SDS011;26722;43.212;27.932;2023-04-25T13:05:34;16.35;;;8.60;;
40993;SDS011;26722;43.212;27.932;2023-04-25T13:08:00;11.73;;;7.43;;
40993;SDS011;26722;43.212;27.932;2023-04-25T13:10:26;14.90;;;8.10;;
40993;SDS011;26722;43.212;27.932;2023-04-25T13:12:51;14.73;;;7.68;;
40993;SDS011;26722;43.212;27.932;2023-04-25T13:15:17;13.68;;;8.10;;
40993;SDS011;26722;43.212;27.932;2023-04-25T13:17:42;15.40;;;8.45;;
40993;SDS011;26722;43.212;27.932;2023-04-25T13:20:08;16.48;;;8.85;;
40993;SDS011;26722;43.212;27.932;2023-04-25T13:22:34;20.73;;;8.95;;
40993;SDS011;26722;43.212;27.932;2023-04-25T13:25:04;17.95;;;8.77;;
40993;SDS011;26722;43.212;27.932;2023-04-25T13:27:31;16.77;;;9.05;;
40993;SDS011;26722;43.212;27.932;2023-04-25T13:29:59;20.38;;;9.85;;
40993;SDS011;26722;43.212;27.932;2023-04-25T13:32:25;18.38;;;10.48;;
40993;SDS011;26722;43.212;27.932;2023-04-25T13:34:51;17.95;;;9.60;;
40993;SDS011;26722;43.212;27.932;2023-04-25T13:37:16;20.98;;;9.90;;
40993;SDS011;26722;43.212;27.932;2023-04-25T13:39:42;18.02;;;10.80;;
40993;SDS011;26722;43.212;27.932;2023-04-25T13:42:07;18.65;;;10.90;;
40993;SDS011;26722;43.212;27.932;2023-04-25T13:44:32;23.92;;;10.70;;
40993;SDS011;26722;43.212;27.932;2023-04-25T13:46:58;21.92;;;11.00;;
40993;SDS011;26722;43.212;27.932;2023-04-25T13:49:25;17.60;;;10.75;;
40993;SDS011;26722;43.212;27.932;2023-04-25T13:51:51;22.98;;;11.43;;
40993;SDS011;26722;43.212;27.932;2023-04-25T13:54:16;16.25;;;10.63;;
40993;SDS011;26722;43.212;27.932;2023-04-25T13:56:43;21.08;;;11.85;;
40993;SDS011;26722;43.212;27.932;2023-04-25T13:59:08;19.92;;;11.45;;
40993;SDS011;26722;43.212;27.932;2023-04-25T14:01:34;21.05;;;12.80;;
40993;SDS011;26722;43.212;27.932;2023-04-25T14:04:00;23.52;;;11.95;;
40993;SDS011;26722;43.212;27.932;2023-04-25T14:06:26;22.88;;;12.18;;
40993;SDS011;26722;43.212;27.932;2023-04-25T14:08:53;27.05;;;12.27;;
40993;SDS011;26722;43.212;27.932;2023-04-25T14:11:19;25.95;;;11.23;;
40993;SDS011;26722;43.212;27.932;2023-04-25T14:13:45;24.20;;;12.88;;
40993;SDS011;26722;43.212;27.932;2023-04-25T14:16:10;24.90;;;13.48;;
40993;SDS011;26722;43.212;27.932;2023-04-25T14:18:36;28.10;;;12.32;;
40993;SDS011;26722;43.212;27.932;2023-04-25T14:21:01;23.75;;;13.00;;
40993;SDS011;26722;43.212;27.932;2023-04-25T14:23:27;19.13;;;13.25;;
40993;SDS011;26722;43.212;27.932;2023-04-25T14:25:52;26.83;;;14.07;;
40993;SDS011;26722;43.212;27.932;2023-04-25T14:28:18;23.42;;;13.70;;